Flight Track Log - Related Links

Times and Time Zones

All times are in EDT time to prevent confusion due to time zone crossing. See the SWA1046 flight status page for this flight to view local times or setup timezone preferences in your user account.

Time Position Orientation Groundspeed Altitude Reporting Facility
EDT Latitude Longitude Course Direction KTS MPH feet Rate Location/Type
Wed 02:12:17 PM 38.7592 -90.3428 305° West 168 193 2,400  Level FAA TRACON SMA TRACON (SMA)
Wed 02:12:37 PM 38.7706 -90.3667 301° West 200 230 3,500 3,385 Climbing FAA TRACON SMA TRACON (SMA)
Wed 02:12:56 PM 38.7733 -90.3894 279° West 220 253 4,600 3,150 Climbing FAA TRACON SMA TRACON (SMA)
Wed 02:13:17 PM 38.7653 -90.4122 246° West 231 266 5,600 2,049 Climbing FAA TRACON SMA TRACON (SMA)
Wed 02:13:37 PM 38.7469 -90.4344 223° Southwest 236 272 6,000 450 Climbing FAA TRACON SMA TRACON (SMA)
Wed 02:13:57 PM 38.7297 -90.4506 216° Southwest 246 283 5,900  Descending FAA TRACON SMA TRACON (SMA)
Wed 02:14:16 PM 38.7125 -90.4686 219° Southwest 257 296 6,000 154 Climbing FAA TRACON SMA TRACON (SMA)
Wed 02:14:36 PM 38.6914 -90.4928 222° Southwest 265 305 6,000  Level FAA TRACON SMA TRACON (SMA)
Wed 02:14:57 PM 38.6744 -90.5119 221° Southwest 265 305 6,000 585 Level FAA TRACON SMA TRACON (SMA)
Wed 02:15:17 PM 38.6572 -90.5314 221° Southwest 266 306 6,400 2,400 Climbing FAA TRACON SMA TRACON (SMA)
Wed 02:15:37 PM 38.6358 -90.5561 222° Southwest 271 312 7,600 4,000 Climbing FAA TRACON SMA TRACON (SMA)
Wed 02:15:59 PM 38.6131 -90.5817 221° Southwest 280 322 9,200 4,326 Climbing FAA TRACON SMA TRACON (SMA)
Wed 02:16:20 PM 38.5953 -90.6022 222° Southwest 282 325 10,700 3,632 Climbing FAA TRACON SMA TRACON (SMA)
Wed 02:16:37 PM 38.5769 -90.6242 223° Southwest 290 334 11,500 2,432 Climbing FAA TRACON SMA TRACON (SMA)
Wed 02:16:57 PM 38.5561 -90.6483 222° Southwest 315 362 12,200 3,077 Climbing FAA TRACON SMA TRACON (SMA)
Wed 02:17:16 PM 38.5350 -90.6731 222° Southwest 334 384 13,500 4,650 Climbing FAA TRACON SMA TRACON (SMA)
Wed 02:17:37 PM 38.5072 -90.7033 220° Southwest 342 394 15,300 4,683 Climbing FAA TRACON SMA TRACON (SMA)
Wed 02:17:57 PM 38.4856 -90.7281 222° Southwest 340 391 16,700 4,050 Climbing FAA TRACON SMA TRACON (SMA)
Wed 02:18:17 PM 38.4642 -90.7522 222° Southwest 336 387 18,000 4,615 Climbing FAA TRACON SMA TRACON (SMA)
Wed 02:18:36 PM 38.4383 -90.7822 222° Southwest 328 377 19,700 4,350 Climbing FAA TRACON SMA TRACON (SMA)
Wed 02:18:57 PM 38.4183 -90.8064 223° Southwest 324 373 20,900 3,366 Climbing FAA TRACON SMA TRACON (SMA)
Wed 02:19:17 PM 38.3983 -90.8306 223° Southwest 322 371 22,000 3,450 Climbing FAA TRACON SMA TRACON (SMA)
Wed 02:19:37 PM 38.3728 -90.8603 222° Southwest 325 374 23,200 3,077 Climbing FAA TRACON SMA TRACON (SMA)
Wed 02:19:56 PM 38.3514 -90.8847 222° Southwest 330 380 24,000 2,600 Climbing FAA TRACON SMA TRACON (SMA)
Wed 02:20:37 PM 38.3022 -90.9397 221° Southwest 342 394 25,800 2,459 Climbing FAA TRACON SMA TRACON (SMA)
Wed 02:20:57 PM 38.2792 -90.9650 221° Southwest 349 402 26,500 2,154 Climbing FAA TRACON SMA TRACON (SMA)
Wed 02:21:16 PM 38.2575 -90.9919 224° Southwest 353 406 27,200 2,550 Climbing FAA TRACON SMA TRACON (SMA)
Wed 02:21:37 PM 38.2294 -91.0250 223° Southwest 358 412 28,200 2,634 Climbing FAA TRACON SMA TRACON (SMA)
Wed 02:21:57 PM 38.2058 -91.0497 219° Southwest 358 412 29,000 2,250 Climbing FAA TRACON SMA TRACON (SMA)
Wed 02:22:17 PM 38.1831 -91.0753 221° Southwest 357 411 29,700 2,308 Climbing FAA TRACON SMA TRACON (SMA)
Wed 02:22:36 PM 38.1561 -91.1106 226° Southwest 359 413 30,500 2,400 Climbing FAA TRACON SMA TRACON (SMA)
Wed 02:22:57 PM 38.1317 -91.1347 218° Southwest 360 414 31,300 2,195 Climbing FAA TRACON SMA TRACON (SMA)
Wed 02:23:17 PM 38.1094 -91.1614 223° Southwest 358 412 32,000 2,100 Climbing FAA TRACON SMA TRACON (SMA)
Wed 02:23:37 PM 38.0811 -91.1947 223° Southwest 360 414 32,700 2,000 Climbing FAA TRACON SMA TRACON (SMA)
Wed 02:23:56 PM 38.0586 -91.2211 223° Southwest 361 415 33,300 1,500 Climbing FAA TRACON SMA TRACON (SMA)
Wed 02:24:17 PM 38.0400 -91.2392 217° Southwest 361 415 33,700 2,222 Climbing FAA TRACON SMA TRACON (SMA)
Wed 02:25:17 PM 37.9611 -91.3792 234° Southwest 359 413 36,300 1,967 Climbing Kansas City Center
Wed 02:26:19 PM 37.8908 -91.4633 223° Southwest 350 403 37,700 1,248 Climbing Kansas City Center
Wed 02:27:22 PM 37.8175 -91.5492 223° Southwest 353 406 38,900 1,104 Climbing Kansas City Center
Wed 02:28:24 PM 37.7439 -91.6353 223° Southwest 357 411 40,000 537 Climbing Kansas City Center
Wed 02:29:25 PM 37.6686 -91.7231 223° Southwest 362 417 40,000  Level Kansas City Center
Wed 02:30:28 PM 37.5942 -91.8103 223° Southwest 363 418 40,000  Level Kansas City Center
Wed 02:31:29 PM 37.5194 -91.8981 223° Southwest 363 418 40,000  Level Kansas City Center
Wed 02:32:33 PM 37.4444 -91.9856 223° Southwest 363 418 40,000  Level Kansas City Center
Wed 02:33:33 PM 37.3536 -92.0889 222° Southwest 364 419 40,000  Level Kansas City Center
Wed 02:34:35 PM 37.2783 -92.1769 223° Southwest 366 421 40,000  Level Kansas City Center
Wed 02:35:38 PM 37.2039 -92.2631 223° Southwest 363 418 40,000  Level Kansas City Center
Wed 02:36:40 PM 37.1289 -92.3486 222° Southwest 362 417 40,000  Level Kansas City Center
Wed 02:37:42 PM 37.0544 -92.4344 223° Southwest 361 415 40,000  Level Kansas City Center
Wed 02:38:43 PM 36.9797 -92.5186 222° Southwest 359 413 40,000  Level Kansas City Center
Wed 02:39:47 PM 36.9069 -92.6014 222° Southwest 355 409 40,000  Level Kansas City Center
Wed 02:40:47 PM 36.8336 -92.6836 222° Southwest 353 406 40,000  Level Kansas City Center
Wed 02:41:48 PM 36.7442 -92.7836 222° Southwest 356 410 40,000  Level Kansas City Center
Wed 02:42:52 PM 36.6697 -92.8667 222° Southwest 358 412 40,000  Level Kansas City Center
Wed 02:43:56 PM 36.5911 -92.9539 222° Southwest 359 413 40,000  Level Kansas City Center
Wed 02:44:57 PM 36.5197 -93.0372 223° Southwest 366 421 40,000  Level Memphis Center
Wed 02:45:57 PM 36.4450 -93.1197 222° Southwest 366 421 40,000  Level Memphis Center
Wed 02:48:01 PM 36.2961 -93.2811 221° Southwest 358 412 40,000  Level Kansas City Center
Wed 02:48:57 PM 36.2225 -93.3644 222° Southwest 366 421 40,000  Level Memphis Center
Wed 02:49:57 PM 36.1497 -93.4439 221° Southwest 366 421 40,000  Level Memphis Center
Wed 02:50:57 PM 36.0747 -93.5258 221° Southwest 366 421 40,000  Level Memphis Center
Wed 02:51:57 PM 36.0017 -93.6078 222° Southwest 366 421 40,000  Level Memphis Center
Wed 02:52:57 PM 35.9286 -93.6894 222° Southwest 361 415 40,000  Level Memphis Center
Wed 02:53:57 PM 35.8536 -93.7683 220° Southwest 361 415 40,000  Level Memphis Center
Wed 02:54:57 PM 35.7783 -93.8497 221° Southwest 361 415 40,000  Level Memphis Center
Wed 02:55:57 PM 35.7008 -93.9333 221° Southwest 361 415 40,000  Level Memphis Center
Wed 02:56:57 PM 35.6297 -94.0122 222° Southwest 361 415 40,000  Level Memphis Center
Wed 02:57:57 PM 35.5542 -94.0931 221° Southwest 366 421 40,000  Level Memphis Center
Wed 02:58:57 PM 35.4789 -94.1711 220° Southwest 366 421 40,000  Level Memphis Center
Wed 02:59:57 PM 35.4011 -94.2567 222° Southwest 366 421 40,000  Level Memphis Center
Wed 03:00:57 PM 35.3278 -94.3372 222° Southwest 366 421 40,000  Level Memphis Center
Wed 03:01:57 PM 35.2522 -94.4178 221° Southwest 366 421 40,000  Level Memphis Center
Wed 03:02:57 PM 35.1786 -94.4978 222° Southwest 366 421 40,000  Level Memphis Center
Wed 03:04:19 PM 35.0789 -94.6128 223° Southwest 356 410 40,000  Level Fort Worth Center
Wed 03:05:19 PM 35.0033 -94.6939 221° Southwest 361 415 40,000  Level Fort Worth Center
Wed 03:06:19 PM 34.9281 -94.7747 221° Southwest 361 415 40,000  Level Fort Worth Center
Wed 03:07:19 PM 34.8203 -94.8161 197° South 359 413 40,000  Level Fort Worth Center
Wed 03:08:19 PM 34.7125 -94.8469 193° South 377 434 40,000  Level Fort Worth Center
Wed 03:09:19 PM 34.6089 -94.8728 192° South 382 440 40,000  Level Fort Worth Center
Wed 03:10:19 PM 34.5092 -94.8961 191° South 376 433 40,000  Level Fort Worth Center
Wed 03:11:19 PM 34.4053 -94.9217 191° South 376 433 40,000 -650 Level Fort Worth Center
Wed 03:12:19 PM 34.3056 -94.9447 191° South 376 433 38,700 -1,650 Descending Fort Worth Center
Wed 03:13:19 PM 34.2339 -95.0144 219° Southwest 343 395 36,700 -2,000 Descending Fort Worth Center
Wed 03:14:19 PM 34.1856 -95.1036 237° Southwest 319 367 34,700 -1,850 Descending Fort Worth Center
Wed 03:15:19 PM 34.1392 -95.1878 236° Southwest 319 367 33,000 -1,650 Descending Fort Worth Center
Wed 03:16:19 PM 34.0906 -95.2717 235° Southwest 313 360 31,400 -1,600 Descending Fort Worth Center
Wed 03:17:19 PM 34.0375 -95.3458 229° Southwest 307 353 29,800 -1,550 Descending Fort Worth Center
Wed 03:18:19 PM 33.9761 -95.4247 227° Southwest 307 353 28,300 -1,600 Descending Fort Worth Center
Wed 03:19:19 PM 33.9086 -95.5114 227° Southwest 337 388 26,600 -1,700 Descending Fort Worth Center
Wed 03:20:19 PM 33.8492 -95.5878 227° Southwest 349 402 24,900 -1,750 Descending Fort Worth Center
Wed 03:21:19 PM 33.7794 -95.6667 223° Southwest 349 402 23,100 -1,600 Descending Fort Worth Center
Wed 03:22:19 PM 33.6794 -95.6886 190° South 349 402 21,700 -1,450 Descending Fort Worth Center
Wed 03:23:19 PM 33.5725 -95.6583 167° South 361 415 20,200 -1,350 Descending Fort Worth Center
Wed 03:24:19 PM 33.4833 -95.6900 197° South 325 374 19,000 -850 Descending Fort Worth Center
Wed 03:25:19 PM 33.4386 -95.7928 242° Southwest 303 349 18,500 -900 Descending Fort Worth Center
Wed 03:26:19 PM 33.4128 -95.8806 251° West 314 361 17,200 -1,450 Descending Fort Worth Center
Wed 03:27:19 PM 33.3764 -95.9881 248° West 319 367 15,600 -1,664 Descending Fort Worth Center
Wed 03:28:18 PM 33.3503 -96.0731 250° West 312 359 13,900 -2,150 Descending Fort Worth Center
Wed 03:29:19 PM 33.3158 -96.1756 248° West 312 359 11,300 -2,380 Descending Fort Worth Center
Wed 03:30:19 PM 33.2872 -96.2603 248° West 312 359 9,100 -1,150 Descending Fort Worth Center
Wed 03:31:19 PM 33.2528 -96.3503 245° Southwest 285 328 9,000 -50 Descending Fort Worth Center
Wed 03:32:19 PM 33.2156 -96.4078 232° Southwest 260 299 9,000  Level Fort Worth Center
Wed 03:33:19 PM 33.1661 -96.4828 232° Southwest 260 299 9,000 -850 Level Fort Worth Center
Wed 03:34:19 PM 33.1014 -96.5033 195° South 260 299 7,300 -1,866 Descending Fort Worth Center
Wed 03:35:18 PM 33.0181 -96.5289 194° South 276 318 5,300 -1,150 Descending Fort Worth Center
Wed 03:36:19 PM 32.9453 -96.5619 201° Southwest 281 323 5,000 -496 Descending Fort Worth Center
Wed 03:37:19 PM 32.8808 -96.5947 203° Southwest 286 329 4,300 -850 Descending Fort Worth Center
Wed 03:38:19 PM 32.8100 -96.6347 205° Southwest 267 307 3,300 -813 Descending Fort Worth Center
Wed 03:38:55 PM 32.7667 -96.6500 197° South 243 280 3,000 -188 Descending Dallas / Fort Worth TRACON
Wed 03:39:55 PM 32.7500 -96.7000 248° West 208 239 3,000 -248 Level Dallas / Fort Worth TRACON
Wed 03:40:56 PM 32.7667 -96.7500 292° West 169 194 2,500 -645 Descending Dallas / Fort Worth TRACON
Wed 03:41:56 PM 32.8000 -96.7833 320° Northwest 143 165 1,700 -744 Descending Dallas / Fort Worth TRACON
Wed 03:42:57 PM 32.8167 -96.8167 301° West 133 153 1,000 -689 Descending Dallas / Fort Worth TRACON
Wed 03:46:00 PM 32.8333 -96.8500 307° West  Level FlightAware Approximate

Login

Don't have an account? Register now (free) for customized features, flight alerts, and more!